Time;durP1;ratioP1;P1;durP2;ratioP2;P2;SDS_P1;SDS_P2;PMS_P1;PMS_P2;Temp;Humidity;BMP_temperature;BMP_pressure;BME280_temperature;BME280_humidity;BME280_pressure;Samples;Min_cycle;Max_cycle;Signal;HPM_P1;HPM_P2
2022/03/14 00:00:10;;;;;;;2.00;1.70;;;;;;;10.71;64.93;101600.50;5014218;28;20446;-69
2022/03/14 00:02:35;;;;;;;2.08;1.80;;;;;;;10.64;65.15;101588.78;5013856;28;20029;-70
2022/03/14 00:05:05;;;;;;;2.30;2.00;;;;;;;10.58;64.74;101583.25;5015029;28;20029;-69
2022/03/14 00:07:34;;;;;;;2.13;1.92;;;;;;;10.60;65.44;101602.53;5013992;28;20026;-69
2022/03/14 00:10:00;;;;;;;2.45;1.80;;;;;;;10.57;65.27;101603.69;5013205;28;20034;-70
2022/03/14 00:12:25;;;;;;;2.38;1.90;;;;;;;10.54;65.53;101604.00;5018862;28;20032;-69
2022/03/14 00:14:55;;;;;;;1.83;1.67;;;;;;;10.54;65.65;101612.78;5017139;28;20050;-69
2022/03/14 00:17:21;;;;;;;2.20;2.00;;;;;;;10.53;65.83;101612.94;5015383;28;20046;-69
2022/03/14 00:19:47;;;;;;;2.28;1.90;;;;;;;10.46;65.97;101618.03;5017389;28;20400;-69
2022/03/14 00:22:18;;;;;;;2.47;2.10;;;;;;;10.48;65.83;101625.84;5016222;28;20029;-69
2022/03/14 00:24:43;;;;;;;2.20;2.00;;;;;;;10.46;66.34;101628.66;5018080;28;20030;-69
2022/03/14 00:27:09;;;;;;;2.50;2.10;;;;;;;10.46;65.90;101626.00;5017330;28;20079;-69
2022/03/14 00:29:34;;;;;;;2.45;2.22;;;;;;;10.45;66.18;101621.66;5019288;28;20033;-70
2022/03/14 00:32:00;;;;;;;2.42;2.05;;;;;;;10.44;66.26;101635.94;5019737;28;20573;-69
2022/03/14 00:34:26;;;;;;;3.20;2.40;;;;;;;10.41;66.17;101628.28;5021792;28;20563;-69
2022/03/14 00:36:51;;;;;;;2.55;2.35;;;;;;;10.42;66.31;101637.91;5012963;28;20057;-69
2022/03/14 00:39:17;;;;;;;2.40;2.20;;;;;;;10.42;66.76;101637.06;5021398;28;20123;-69
2022/03/14 00:41:43;;;;;;;2.22;2.03;;;;;;;10.41;66.80;101643.38;5016840;28;20119;-70
2022/03/14 00:44:08;;;;;;;2.63;2.42;;;;;;;10.34;66.78;101643.09;5018203;28;20061;-70
2022/03/14 00:46:36;;;;;;;2.80;2.45;;;;;;;10.36;67.16;101646.44;5023917;28;20118;-69
2022/03/14 00:49:01;;;;;;;2.63;2.20;;;;;;;10.37;67.18;101652.59;5017686;28;20557;-69
2022/03/14 00:51:26;;;;;;;2.88;2.50;;;;;;;10.32;67.04;101641.59;5019514;28;20160;-70
2022/03/14 00:53:52;;;;;;;2.60;2.38;;;;;;;10.32;67.06;101646.91;5019507;28;20037;-69
2022/03/14 00:56:20;;;;;;;2.45;2.17;;;;;;;10.36;66.95;101656.22;5013740;28;20076;-69
2022/03/14 00:58:45;;;;;;;2.88;2.53;;;;;;;10.36;67.40;101665.03;5015983;28;20056;-69
2022/03/14 01:01:10;;;;;;;2.38;2.17;;;;;;;10.34;67.43;101667.00;5017824;28;20104;-70
2022/03/14 01:03:36;;;;;;;2.78;2.40;;;;;;;10.32;67.69;101665.47;5020848;28;20037;-69
2022/03/14 01:06:01;;;;;;;2.83;2.63;;;;;;;10.31;67.22;101664.66;5019883;28;20041;-69
2022/03/14 01:08:27;;;;;;;2.83;2.35;;;;;;;10.31;67.56;101674.44;5021279;28;20064;-69
2022/03/14 01:10:52;;;;;;;3.35;2.67;;;;;;;10.30;67.85;101676.25;5018067;28;20042;-69
2022/03/14 01:13:18;;;;;;;2.80;2.50;;;;;;;10.29;68.12;101677.22;5018004;28;20039;-71
2022/03/14 01:15:44;;;;;;;4.07;2.90;;;;;;;10.23;68.53;101683.97;5021452;28;20022;-69
2022/03/14 01:18:09;;;;;;;2.90;2.60;;;;;;;10.12;68.81;101670.00;5017105;28;20037;-70
2022/03/14 01:20:35;;;;;;;3.03;2.70;;;;;;;10.12;69.22;101677.97;5014009;28;20088;-68
2022/03/14 01:23:00;;;;;;;6.13;3.03;;;;;;;10.08;69.40;101682.75;5017088;28;20096;-69
2022/03/14 01:25:26;;;;;;;3.70;3.13;;;;;;;10.06;69.79;101689.19;5018667;28;20032;-69
2022/03/14 01:27:53;;;;;;;4.47;3.20;;;;;;;10.01;70.00;101694.94;5024317;28;20040;-71
2022/03/14 01:30:20;;;;;;;3.58;2.95;;;;;;;10.00;70.15;101695.91;5017424;28;20029;-71
2022/03/14 01:32:46;;;;;;;4.03;3.35;;;;;;;9.98;70.26;101687.28;5018696;28;20560;-69
2022/03/14 01:35:11;;;;;;;3.22;2.92;;;;;;;9.94;70.58;101689.38;5012909;28;20030;-69
2022/03/14 01:37:37;;;;;;;4.20;2.72;;;;;;;9.96;70.85;101705.16;5021768;28;20176;-69
2022/03/14 01:40:03;;;;;;;3.45;2.95;;;;;;;9.93;70.97;101702.78;5015635;28;20069;-69
2022/03/14 01:42:28;;;;;;;4.05;2.90;;;;;;;9.84;70.89;101695.72;5015046;28;20056;-69
2022/03/14 01:44:53;;;;;;;4.25;3.22;;;;;;;9.93;71.18;101700.13;5023132;28;20117;-69
2022/03/14 01:47:19;;;;;;;4.30;3.03;;;;;;;9.91;70.99;101702.09;5022228;28;20043;-69
2022/03/14 01:49:46;;;;;;;3.55;3.08;;;;;;;9.92;70.90;101709.09;5019631;28;20412;-71
2022/03/14 01:52:13;;;;;;;3.78;3.38;;;;;;;9.91;71.43;101699.44;5013768;28;20507;-68
2022/03/14 01:54:39;;;;;;;4.53;3.60;;;;;;;9.89;71.21;101709.38;5017257;28;20022;-70
2022/03/14 01:57:05;;;;;;;4.72;3.38;;;;;;;9.90;71.21;101714.53;5016033;28;20531;-69
2022/03/14 01:59:31;;;;;;;4.05;3.33;;;;;;;9.90;71.57;101724.31;5019748;28;20041;-69
2022/03/14 02:01:57;;;;;;;4.90;3.40;;;;;;;9.88;71.70;101719.16;5020492;28;20496;-69
2022/03/14 02:04:22;;;;;;;3.72;3.35;;;;;;;9.88;71.35;101718.31;5014573;28;20049;-69
2022/03/14 02:06:51;;;;;;;4.60;3.65;;;;;;;9.85;71.74;101713.31;5021139;28;20036;-68
2022/03/14 02:09:17;;;;;;;4.47;3.55;;;;;;;9.85;71.78;101718.59;5015743;28;20026;-69
2022/03/14 02:12:07;;;;;;;4.93;3.35;;;;;;;9.85;71.94;101726.56;5012417;28;20447;-69
2022/03/14 02:14:39;;;;;;;5.35;4.05;;;;;;;9.80;71.77;101721.66;5009088;28;20140;-69
2022/03/14 02:17:15;;;;;;;4.28;3.28;;;;;;;9.82;71.87;101734.78;5018917;28;20053;-71
2022/03/14 02:19:42;;;;;;;4.95;3.92;;;;;;;9.80;72.30;101742.06;5017684;28;20029;-69
2022/03/14 02:22:11;;;;;;;5.22;3.88;;;;;;;9.84;72.17;101754.06;5014861;28;20025;-69
2022/03/14 02:24:37;;;;;;;5.82;4.15;;;;;;;9.82;72.41;101745.41;5015466;28;20032;-69
2022/03/14 02:27:03;;;;;;;6.20;3.88;;;;;;;9.81;72.29;101747.22;5016788;28;20029;-69
2022/03/14 02:29:28;;;;;;;4.55;3.70;;;;;;;9.82;72.17;101750.72;5014166;28;20345;-69
2022/03/14 02:31:54;;;;;;;4.65;3.85;;;;;;;9.83;72.24;101744.41;5016239;28;20026;-69
2022/03/14 02:34:19;;;;;;;4.25;3.60;;;;;;;9.84;72.45;101743.47;5016947;28;20499;-68
2022/03/14 02:36:45;;;;;;;5.00;4.10;;;;;;;9.82;72.45;101746.22;5016120;28;20116;-69
2022/03/14 02:39:10;;;;;;;5.28;4.15;;;;;;;9.82;72.19;101746.22;5015349;28;20025;-71
2022/03/14 02:41:36;;;;;;;5.03;3.90;;;;;;;9.81;72.76;101743.72;5015825;28;20393;-69
2022/03/14 02:44:06;;;;;;;4.30;3.83;;;;;;;9.83;72.62;101747.06;5013252;28;20555;-69
2022/03/14 02:46:34;;;;;;;4.45;3.70;;;;;;;9.82;72.94;101751.53;5016370;28;20507;-69
2022/03/14 02:49:00;;;;;;;5.55;4.30;;;;;;;9.81;72.71;101755.16;5017390;28;21298;-71
2022/03/14 02:51:25;;;;;;;5.38;4.28;;;;;;;9.78;72.48;101758.13;5022134;28;20033;-68
2022/03/14 02:53:50;;;;;;;4.40;3.90;;;;;;;9.74;72.71;101758.53;5014216;28;20028;-69
2022/03/14 02:56:16;;;;;;;5.35;3.85;;;;;;;9.79;73.25;101772.22;5012586;28;20481;-69
2022/03/14 02:58:41;;;;;;;4.78;4.22;;;;;;;9.74;73.00;101770.00;5014748;28;20030;-68
2022/03/14 03:01:07;;;;;;;5.32;4.40;;;;;;;9.77;73.04;101784.78;5017442;28;20256;-69
2022/03/14 03:03:34;;;;;;;4.88;4.28;;;;;;;9.72;72.99;101774.59;5016663;28;20445;-69
2022/03/14 03:05:59;;;;;;;6.13;4.28;;;;;;;9.75;73.04;101784.94;5013782;28;20518;-69
2022/03/14 03:08:24;;;;;;;4.90;3.97;;;;;;;9.69;73.45;101782.84;5014487;28;20026;-70
2022/03/14 03:10:50;;;;;;;4.70;4.13;;;;;;;9.69;73.54;101787.31;5015594;28;20208;-68
2022/03/14 03:13:15;;;;;;;5.53;4.55;;;;;;;9.68;73.34;101793.59;5010318;28;20026;-69
2022/03/14 03:15:41;;;;;;;6.05;4.20;;;;;;;9.63;73.72;101799.34;5011361;28;20389;-69
2022/03/14 03:18:07;;;;;;;4.38;3.88;;;;;;;9.62;73.96;101808.28;5011048;28;20637;-69
2022/03/14 03:20:32;;;;;;;4.47;3.80;;;;;;;9.59;73.82;101806.75;5019276;28;20045;-70
2022/03/14 03:22:58;;;;;;;6.18;4.15;;;;;;;9.58;73.66;101812.19;5021152;28;20108;-69
2022/03/14 03:25:23;;;;;;;4.75;4.10;;;;;;;9.57;74.12;101818.47;5018156;28;20030;-68
2022/03/14 03:27:49;;;;;;;4.75;4.00;;;;;;;9.51;73.74;101822.50;5014600;28;20421;-68
2022/03/14 03:30:15;;;;;;;5.20;4.07;;;;;;;9.48;74.00;101828.06;5014855;28;20080;-69
2022/03/14 03:32:40;;;;;;;4.30;3.90;;;;;;;9.45;74.33;101831.00;5014049;28;20034;-69
2022/03/14 03:35:06;;;;;;;6.40;4.30;;;;;;;9.42;74.45;101838.41;5017566;28;20036;-69
2022/03/14 03:37:31;;;;;;;4.88;4.07;;;;;;;9.37;74.21;101838.00;5015529;28;20033;-69
2022/03/14 03:39:57;;;;;;;4.50;4.10;;;;;;;9.34;74.38;101860.31;5014232;28;20034;-70
2022/03/14 03:42:22;;;;;;;4.53;4.07;;;;;;;9.33;74.62;101861.28;5015592;28;20040;-69
2022/03/14 03:44:47;;;;;;;4.13;3.72;;;;;;;9.28;74.99;101856.41;5017918;28;20032;-71
2022/03/14 03:47:13;;;;;;;5.30;4.18;;;;;;;9.27;75.14;101867.16;5012522;28;20042;-68
2022/03/14 03:49:38;;;;;;;5.90;4.43;;;;;;;9.29;75.44;101871.31;5011342;28;20464;-69
2022/03/14 03:52:05;;;;;;;5.28;4.53;;;;;;;9.25;75.39;101877.88;5012604;28;20029;-69
2022/03/14 03:54:30;;;;;;;5.05;4.40;;;;;;;9.26;75.50;101884.03;5013672;28;20029;-69
2022/03/14 03:56:55;;;;;;;5.47;4.45;;;;;;;9.22;75.95;101888.72;5015759;28;20033;-70
2022/03/14 03:59:21;;;;;;;6.13;5.43;;;;;;;9.21;76.03;101896.81;5012900;28;20037;-69
2022/03/14 04:01:47;;;;;;;6.45;5.32;;;;;;;9.17;76.25;101898.91;5016575;28;20072;-70
2022/03/14 04:04:12;;;;;;;6.03;5.30;;;;;;;9.10;76.94;101897.78;5011182;28;20029;-69
2022/03/14 04:06:41;;;;;;;7.63;6.90;;;;;;;8.85;78.38;101909.66;5016269;28;20041;-69
2022/03/14 04:09:07;;;;;;;8.27;7.32;;;;;;;8.66;79.44;101904.28;5015376;28;20037;-69
2022/03/14 04:11:33;;;;;;;9.27;7.57;;;;;;;8.61;79.76;101917.91;5015066;28;20481;-69
2022/03/14 04:13:59;;;;;;;8.50;7.22;;;;;;;8.63;80.44;101920.44;5013265;28;20052;-68
2022/03/14 04:16:27;;;;;;;8.25;7.13;;;;;;;8.62;80.40;101921.41;5015201;28;20026;-69
2022/03/14 04:18:53;;;;;;;8.40;7.57;;;;;;;8.65;80.73;101923.78;5015212;28;20078;-68
2022/03/14 04:21:20;;;;;;;8.52;7.40;;;;;;;8.66;80.44;101928.94;5017048;28;20021;-68
2022/03/14 04:23:45;;;;;;;9.65;7.78;;;;;;;8.68;80.75;101937.63;5011686;28;20486;-70
2022/03/14 04:26:11;;;;;;;8.73;7.72;;;;;;;8.63;80.82;101931.03;5013886;28;20086;-69
2022/03/14 04:28:36;;;;;;;9.35;8.35;;;;;;;8.65;80.71;101934.38;5021068;28;20109;-70
2022/03/14 04:31:05;;;;;;;9.90;7.68;;;;;;;8.63;80.95;101941.63;5016041;28;20466;-71
2022/03/14 04:33:31;;;;;;;9.20;8.13;;;;;;;8.61;80.74;101938.25;5018926;28;20037;-69
2022/03/14 04:35:57;;;;;;;10.35;8.35;;;;;;;8.59;81.02;101951.63;5021488;28;20041;-71
2022/03/14 04:38:23;;;;;;;10.48;8.13;;;;;;;8.56;81.10;101951.91;5014003;28;20041;-69
2022/03/14 04:40:49;;;;;;;9.55;8.10;;;;;;;8.53;81.27;101961.91;5013816;28;20048;-69
2022/03/14 04:43:14;;;;;;;10.13;7.65;;;;;;;8.50;80.88;101962.16;5015067;28;20033;-69
2022/03/14 04:45:40;;;;;;;8.75;7.57;;;;;;;8.44;81.48;101968.81;5013978;28;20480;-68
2022/03/14 04:48:06;;;;;;;8.35;7.47;;;;;;;8.43;81.50;101975.09;5015227;28;20029;-68
2022/03/14 04:50:32;;;;;;;9.65;8.10;;;;;;;8.45;81.70;101974.97;5019611;28;20133;-72
2022/03/14 04:52:57;;;;;;;13.63;8.48;;;;;;;8.41;81.80;101976.19;5008586;28;20026;-69
2022/03/14 04:55:23;;;;;;;12.27;8.45;;;;;;;8.42;81.69;101985.81;5016241;28;20092;-69
2022/03/14 04:57:48;;;;;;;11.52;8.85;;;;;;;8.41;82.03;101989.41;5019929;28;20762;-69
2022/03/14 05:00:14;;;;;;;10.90;8.00;;;;;;;8.42;82.00;101994.59;5009492;28;20384;-68
2022/03/14 05:02:40;;;;;;;11.18;8.75;;;;;;;8.41;82.13;101998.19;5019919;28;20039;-69
2022/03/14 05:05:08;;;;;;;9.60;8.60;;;;;;;8.41;82.29;102000.00;5021760;28;20155;-68
2022/03/14 05:07:33;;;;;;;10.07;8.95;;;;;;;8.37;82.93;101997.59;5020889;28;20557;-70
2022/03/14 05:09:59;;;;;;;12.15;10.05;;;;;;;8.34;82.74;101999.66;5022552;28;20113;-69
2022/03/14 05:12:25;;;;;;;12.60;9.50;;;;;;;8.34;82.93;102016.38;5018893;28;20557;-69
2022/03/14 05:14:51;;;;;;;12.27;9.23;;;;;;;8.33;82.66;102013.81;5019037;28;20101;-70
2022/03/14 05:17:17;;;;;;;11.38;9.65;;;;;;;8.31;82.94;102026.34;5020082;28;20116;-68
2022/03/14 05:19:42;;;;;;;11.77;9.73;;;;;;;8.30;82.92;102028.16;5018927;28;20120;-69
2022/03/14 05:22:07;;;;;;;12.20;9.95;;;;;;;8.28;83.28;102032.75;5015346;28;20034;-71
2022/03/14 05:24:33;;;;;;;11.68;9.93;;;;;;;8.28;83.16;102034.53;5020642;28;20033;-69
2022/03/14 05:26:58;;;;;;;15.57;11.20;;;;;;;8.28;83.12;102043.31;5020615;28;20017;-69
2022/03/14 05:29:23;;;;;;;12.20;10.80;;;;;;;8.28;83.64;102045.13;5018377;28;20059;-69
2022/03/14 05:31:49;;;;;;;13.98;10.60;;;;;;;8.28;83.60;102053.91;5020506;28;20109;-69
2022/03/14 05:34:14;;;;;;;13.73;11.20;;;;;;;8.24;83.46;102062.22;5019135;28;20088;-69
2022/03/14 05:36:40;;;;;;;13.02;10.60;;;;;;;8.25;83.51;102058.63;5018171;28;20042;-69
2022/03/14 05:39:06;;;;;;;13.70;10.95;;;;;;;8.24;83.56;102057.78;5015433;28;20058;-69
2022/03/14 05:41:31;;;;;;;14.13;11.20;;;;;;;8.22;83.53;102061.50;5014652;28;20138;-68
2022/03/14 05:43:56;;;;;;;13.15;10.98;;;;;;;8.21;83.64;102067.78;5018728;28;20556;-70
2022/03/14 05:46:21;;;;;;;16.00;12.02;;;;;;;8.19;83.95;102075.84;5019530;28;20037;-68
2022/03/14 05:48:47;;;;;;;17.58;12.15;;;;;;;8.16;83.92;102083.19;5017693;28;20399;-69
2022/03/14 05:51:12;;;;;;;17.02;12.57;;;;;;;8.11;84.06;102073.00;5020140;28;20041;-68
2022/03/14 05:53:37;;;;;;;17.60;12.82;;;;;;;8.13;83.89;102089.56;5017663;28;20107;-68
2022/03/14 05:56:03;;;;;;;16.73;13.15;;;;;;;8.13;83.91;102102.81;5021998;28;20038;-69
2022/03/14 05:58:28;;;;;;;18.95;14.00;;;;;;;8.09;84.01;102098.69;5019555;28;20029;-69
2022/03/14 06:00:53;;;;;;;19.42;14.25;;;;;;;8.15;84.21;102107.97;5022084;28;20481;-69
2022/03/14 06:03:22;;;;;;;19.98;14.15;;;;;;;8.16;83.83;102110.50;5017951;28;20029;-68
2022/03/14 06:05:48;;;;;;;19.07;15.10;;;;;;;8.16;83.99;102114.94;5021887;28;20025;-69
2022/03/14 06:08:14;;;;;;;20.15;16.02;;;;;;;8.14;84.39;102123.00;5021692;28;20287;-68
2022/03/14 06:10:45;;;;;;;19.38;15.77;;;;;;;8.17;84.05;102125.41;5018428;28;20022;-68
2022/03/14 06:13:11;;;;;;;23.67;14.93;;;;;;;8.16;84.06;102123.72;5020513;28;20382;-68
2022/03/14 06:15:37;;;;;;;22.17;15.70;;;;;;;8.16;84.24;102128.19;5018735;28;20484;-69
2022/03/14 06:18:02;;;;;;;21.65;15.48;;;;;;;8.17;84.46;102136.00;5020648;28;20028;-68
2022/03/14 06:20:28;;;;;;;19.42;15.90;;;;;;;8.14;84.27;102130.94;5022280;28;20040;-68
2022/03/14 06:22:53;;;;;;;23.92;16.80;;;;;;;8.16;84.24;102139.59;5022180;28;20128;-68
2022/03/14 06:25:18;;;;;;;21.73;16.40;;;;;;;8.19;84.58;102143.81;5024420;28;20672;-69
2022/03/14 06:27:43;;;;;;;22.98;16.10;;;;;;;8.18;84.53;102139.47;5016714;28;20053;-69
2022/03/14 06:30:11;;;;;;;19.33;16.60;;;;;;;8.20;84.48;102143.69;5014457;28;20037;-68
2022/03/14 06:32:39;;;;;;;23.30;17.63;;;;;;;8.19;84.93;102152.59;5014225;28;20033;-69
2022/03/14 06:35:06;;;;;;;23.88;17.30;;;;;;;8.19;84.62;102160.53;5012744;28;20133;-70
2022/03/14 06:37:32;;;;;;;22.73;17.63;;;;;;;8.21;84.84;102163.88;5018960;28;20042;-70
2022/03/14 06:39:57;;;;;;;22.45;17.33;;;;;;;8.22;84.71;102170.00;5015433;28;20036;-68
2022/03/14 06:42:23;;;;;;;22.17;17.13;;;;;;;8.22;84.90;102173.50;5018320;28;20112;-68
2022/03/14 06:44:49;;;;;;;27.45;18.23;;;;;;;8.18;84.98;102161.47;5027611;28;20025;-68
2022/03/14 06:47:18;;;;;;;26.10;17.90;;;;;;;8.24;84.71;102182.16;5017724;28;20144;-68
2022/03/14 06:49:44;;;;;;;23.45;17.33;;;;;;;8.24;85.02;102179.50;5016574;28;20540;-69
2022/03/14 06:52:14;;;;;;;25.13;18.83;;;;;;;8.27;84.68;102181.91;5022539;28;20040;-69
2022/03/14 06:54:39;;;;;;;;;;;;;;;8.28;84.78;102191.53;5022167;28;20596;-68
2022/03/14 06:57:09;;;;;;;27.70;18.65;;;;;;;8.28;84.50;102195.97;5014424;28;19931;-69
2022/03/14 06:59:35;;;;;;;25.48;18.75;;;;;;;8.23;84.80;102183.13;5017554;28;20026;-70
2022/03/14 07:02:01;;;;;;;29.20;19.55;;;;;;;8.31;84.91;102196.56;5018813;28;20029;-70
2022/03/14 07:04:27;;;;;;;28.63;18.80;;;;;;;8.24;84.97;102181.31;5018908;28;20476;-68
2022/03/14 07:06:52;;;;;;;23.98;19.42;;;;;;;8.32;84.99;102197.41;5015447;28;20434;-70
2022/03/14 07:09:17;;;;;;;25.98;19.20;;;;;;;8.30;84.89;102196.69;5017912;28;20037;-70
2022/03/14 07:11:43;;;;;;;28.65;19.60;;;;;;;8.32;84.93;102198.25;5021397;28;20033;-69
2022/03/14 07:14:08;;;;;;;27.10;19.00;;;;;;;8.27;85.04;102197.78;5007539;28;20038;-69
2022/03/14 07:16:34;;;;;;;28.48;19.73;;;;;;;8.37;84.84;102213.78;5003889;28;20416;-68
2022/03/14 07:18:59;;;;;;;25.45;19.75;;;;;;;8.38;84.65;102215.47;5020218;28;20041;-69
2022/03/14 07:21:28;;;;;;;28.95;20.40;;;;;;;8.36;84.43;102212.13;5013341;28;20443;-68
2022/03/14 07:23:57;;;;;;;28.15;20.15;;;;;;;8.43;84.85;102231.03;5016132;28;20367;-68
2022/03/14 07:26:23;;;;;;;28.05;19.50;;;;;;;8.43;84.53;102225.72;5022011;28;20508;-69
2022/03/14 07:28:48;;;;;;;31.30;20.13;;;;;;;8.42;84.57;102222.25;5018242;28;20256;-68
2022/03/14 07:31:15;;;;;;;25.08;19.33;;;;;;;8.48;84.84;102228.84;5018189;28;20037;-68
2022/03/14 07:33:41;;;;;;;32.03;20.30;;;;;;;8.46;84.89;102228.97;5019921;28;20621;-69
2022/03/14 07:36:06;;;;;;;29.10;20.40;;;;;;;8.44;84.52;102222.13;5023820;28;20514;-68
2022/03/14 07:38:31;;;;;;;30.58;19.88;;;;;;;8.51;84.54;102236.53;5019622;28;20496;-69
2022/03/14 07:40:57;;;;;;;40.70;28.20;;;;;;;8.48;84.52;102227.03;5015391;28;20037;-68
2022/03/14 07:43:22;;;;;;;33.08;24.15;;;;;;;8.51;84.28;102228.59;5019440;28;20486;-69
2022/03/14 07:45:48;;;;;;;32.00;21.25;;;;;;;8.51;84.21;102231.25;5016208;28;20032;-68
2022/03/14 07:48:13;;;;;;;33.80;21.75;;;;;;;8.63;83.78;102243.47;5024657;28;20187;-69
2022/03/14 07:50:39;;;;;;;31.92;22.00;;;;;;;8.65;84.00;102241.56;5023076;28;20029;-68
2022/03/14 07:53:06;;;;;;;32.22;20.83;;;;;;;8.63;83.64;102249.63;5023690;28;20544;-69
2022/03/14 07:55:32;;;;;;;36.90;23.35;;;;;;;8.69;83.77;102249.16;5023751;28;20139;-69
2022/03/14 07:57:57;;;;;;;28.45;21.52;;;;;;;8.69;83.79;102258.91;5020235;28;20097;-71
2022/03/14 08:00:23;;;;;;;30.50;21.17;;;;;;;8.71;83.67;102250.84;5011660;28;20029;-68
2022/03/14 08:02:49;;;;;;;36.38;22.35;;;;;;;8.72;83.33;102263.09;5022180;28;20460;-69
2022/03/14 08:05:16;;;;;;;35.83;24.30;;;;;;;8.73;83.13;102259.50;5014355;28;20049;-69
2022/03/14 08:07:46;;;;;;;34.08;22.40;;;;;;;8.75;83.23;102262.84;5015980;28;20026;-69
2022/03/14 08:10:15;;;;;;;37.25;22.88;;;;;;;8.76;83.19;102275.97;5015987;28;20021;-68
2022/03/14 08:12:50;;;;;;;31.90;22.40;;;;;;;8.78;83.31;102276.69;5021157;28;20018;-69
2022/03/14 08:15:20;;;;;;;34.00;22.67;;;;;;;8.79;82.55;102274.88;5014999;28;20021;-68
2022/03/14 08:17:45;;;;;;;35.53;22.90;;;;;;;8.80;82.71;102280.06;5016549;28;20030;-69
2022/03/14 08:20:11;;;;;;;32.10;22.17;;;;;;;8.80;82.55;102282.69;5025812;28;20025;-70
2022/03/14 08:22:36;;;;;;;32.35;22.80;;;;;;;8.82;82.80;102291.38;5014198;28;20028;-68
2022/03/14 08:25:01;;;;;;;38.63;22.75;;;;;;;8.82;82.52;102279.94;5021129;28;20033;-69
2022/03/14 08:27:27;;;;;;;32.30;23.65;;;;;;;8.81;82.70;102294.13;5021239;28;20045;-69
2022/03/14 08:29:52;;;;;;;37.42;23.10;;;;;;;8.85;82.24;102300.88;5023305;28;20563;-69
2022/03/14 08:32:19;;;;;;;34.15;23.17;;;;;;;8.81;82.64;102291.50;5025915;28;20021;-69
2022/03/14 08:34:45;;;;;;;35.60;24.02;;;;;;;8.86;82.50;102303.41;5017283;28;20145;-69
2022/03/14 08:37:11;;;;;;;39.50;24.02;;;;;;;8.89;82.26;102297.00;5024522;28;20072;-70
2022/03/14 08:39:36;;;;;;;37.70;24.02;;;;;;;8.96;82.66;102314.97;5020019;28;20501;-69
2022/03/14 08:42:04;;;;;;;38.50;23.17;;;;;;;8.97;82.46;102315.81;5011575;28;20026;-68
2022/03/14 08:44:29;;;;;;;34.35;22.33;;;;;;;9.03;82.52;102328.53;5030202;28;20033;-69
2022/03/14 08:46:54;;;;;;;32.22;22.30;;;;;;;9.04;82.17;102326.75;5022573;28;20045;-69
2022/03/14 08:49:20;;;;;;;34.58;22.52;;;;;;;9.12;82.03;102334.91;5012259;28;20054;-69
2022/03/14 08:51:45;;;;;;;33.00;22.20;;;;;;;9.17;81.54;102332.72;5027997;28;20033;-69
2022/03/14 08:54:10;;;;;;;35.83;23.85;;;;;;;9.21;81.48;102340.28;5013202;28;20084;-69
2022/03/14 08:56:37;;;;;;;34.33;23.88;;;;;;;9.26;81.45;102351.38;5025894;28;20033;-70
2022/03/14 08:59:02;;;;;;;35.45;22.90;;;;;;;9.22;80.58;102346.44;5025918;28;20111;-70
2022/03/14 09:01:28;;;;;;;35.58;22.17;;;;;;;9.27;81.10;102358.38;5016605;28;20113;-70
2022/03/14 09:03:53;;;;;;;35.38;23.33;;;;;;;9.28;81.15;102353.91;5017814;28;20032;-68
2022/03/14 09:06:18;;;;;;;35.08;23.15;;;;;;;9.34;80.93;102368.47;5021916;28;20405;-68
2022/03/14 09:08:44;;;;;;;36.15;24.42;;;;;;;9.29;80.95;102358.25;5016750;28;20034;-71
2022/03/14 09:11:09;;;;;;;37.92;25.00;;;;;;;9.41;80.96;102375.78;5016062;28;20034;-68
2022/03/14 09:13:34;;;;;;;34.90;23.75;;;;;;;9.40;80.40;102366.16;5016488;28;20080;-69
2022/03/14 09:15:59;;;;;;;35.80;23.42;;;;;;;9.39;80.36;102377.72;5017369;28;20030;-69
2022/03/14 09:18:30;;;;;;;39.10;23.95;;;;;;;9.42;80.08;102381.94;5023947;28;20064;-69
2022/03/14 09:20:56;;;;;;;39.58;24.63;;;;;;;9.47;80.29;102374.44;5020603;28;20475;-68
2022/03/14 09:23:21;;;;;;;40.13;24.77;;;;;;;9.50;80.15;102387.44;5026875;28;20053;-68
2022/03/14 09:25:48;;;;;;;36.35;22.00;;;;;;;9.47;79.60;102396.50;5016840;28;20467;-69
2022/03/14 09:28:14;;;;;;;36.65;23.23;;;;;;;9.48;79.48;102402.63;5027366;28;20033;-69
2022/03/14 09:30:39;;;;;;;37.03;23.25;;;;;;;9.45;79.43;102400.25;5018062;28;20021;-69
2022/03/14 09:33:05;;;;;;;35.67;22.70;;;;;;;9.43;79.17;102403.00;5027555;28;20072;-70
2022/03/14 09:35:30;;;;;;;38.97;23.15;;;;;;;9.46;79.78;102412.53;5023957;28;20083;-70
2022/03/14 09:37:56;;;;;;;34.72;23.52;;;;;;;9.46;79.27;102418.69;5017387;28;20053;-69
2022/03/14 09:40:23;;;;;;;35.40;23.45;;;;;;;9.47;79.28;102441.56;5014992;28;20032;-68
2022/03/14 09:42:51;;;;;;;34.65;23.23;;;;;;;9.43;79.41;102431.34;5018204;28;20707;-69
2022/03/14 09:45:19;;;;;;;38.97;24.30;;;;;;;9.41;78.84;102426.16;5015669;28;20057;-68
2022/03/14 09:47:46;;;;;;;34.85;23.77;;;;;;;9.48;79.45;102442.41;5021657;28;20033;-69
2022/03/14 09:50:14;;;;;;;34.20;22.17;;;;;;;9.52;79.50;102436.72;5013660;28;20042;-69
2022/03/14 09:52:43;;;;;;;40.05;22.67;;;;;;;9.55;79.05;102449.78;5021828;28;20177;-70
2022/03/14 09:55:10;;;;;;;35.30;22.55;;;;;;;9.54;79.23;102449.88;5015219;28;20443;-69
2022/03/14 09:57:37;;;;;;;33.92;21.85;;;;;;;9.55;79.09;102460.38;5014650;28;20463;-69
2022/03/14 10:00:10;;;;;;;36.30;22.70;;;;;;;9.58;79.29;102459.28;5024025;28;20363;-69
2022/03/14 10:02:39;;;;;;;32.63;20.48;;;;;;;9.61;79.13;102453.72;5024152;28;20033;-70
2022/03/14 10:05:08;;;;;;;32.33;21.60;;;;;;;9.63;79.12;102452.63;5017740;28;20094;-70
2022/03/14 10:07:38;;;;;;;33.93;21.57;;;;;;;9.66;79.11;102448.88;5018811;28;20079;-70
2022/03/14 10:10:05;;;;;;;32.95;21.95;;;;;;;9.82;79.14;102453.75;5017680;28;20279;-69
2022/03/14 10:12:32;;;;;;;32.08;22.52;;;;;;;10.00;78.53;102454.91;5018166;28;20112;-68
2022/03/14 10:14:58;;;;;;;35.20;22.98;;;;;;;10.26;78.69;102457.25;5015547;28;20623;-68
2022/03/14 10:17:24;;;;;;;33.65;21.85;;;;;;;10.40;77.42;102443.63;5010509;28;20072;-68
2022/03/14 10:19:55;;;;;;;31.48;20.05;;;;;;;10.54;76.70;102444.16;5020837;28;20056;-69
2022/03/14 10:22:20;;;;;;;29.90;19.58;;;;;;;10.62;76.29;102450.63;5009292;28;20017;-69
2022/03/14 10:24:47;;;;;;;28.08;17.85;;;;;;;10.67;75.70;102459.03;5017869;28;20143;-70
2022/03/14 10:27:18;;;;;;;28.42;18.33;;;;;;;10.67;75.46;102472.31;5019308;28;20518;-68
2022/03/14 10:29:46;;;;;;;25.33;16.48;;;;;;;10.62;74.38;102475.38;5019275;28;20029;-70
2022/03/14 10:32:19;;;;;;;25.63;16.90;;;;;;;10.58;74.31;102484.56;5021850;28;20033;-68
2022/03/14 10:34:52;;;;;;;25.05;16.58;;;;;;;10.55;74.54;102490.16;5018620;28;20630;-69
2022/03/14 10:37:18;;;;;;;24.75;14.93;;;;;;;10.50;74.60;102487.88;5013857;28;20065;-69
2022/03/14 10:39:43;;;;;;;20.75;13.65;;;;;;;10.45;74.02;102489.25;5015037;28;20105;-68
2022/03/14 10:42:13;;;;;;;23.42;14.82;;;;;;;10.50;73.74;102479.91;5015809;28;20071;-69
2022/03/14 10:44:41;;;;;;;22.20;14.98;;;;;;;10.55;73.96;102483.03;5013781;28;20030;-69
2022/03/14 10:47:13;;;;;;;24.38;15.20;;;;;;;10.63;73.58;102484.19;5016479;28;20022;-69
2022/03/14 10:49:40;;;;;;;25.35;14.63;;;;;;;10.75;73.67;102486.66;5014186;28;20064;-70
2022/03/14 10:52:10;;;;;;;25.77;14.52;;;;;;;10.90;73.48;102494.25;5017441;28;20032;-70
2022/03/14 10:54:39;;;;;;;21.00;14.10;;;;;;;11.07;73.47;102491.84;5015230;28;20592;-68
2022/03/14 10:57:12;;;;;;;17.63;12.98;;;;;;;11.25;73.22;102485.88;5011408;28;20030;-70
2022/03/14 10:59:43;;;;;;;23.08;12.73;;;;;;;11.35;72.27;102486.78;5019594;28;20068;-69
2022/03/14 11:02:19;;;;;;;17.35;12.15;;;;;;;11.46;71.97;102487.50;5021078;28;20026;-68
2022/03/14 11:04:53;;;;;;;15.88;11.57;;;;;;;11.59;71.17;102489.91;5008310;28;20029;-69
2022/03/14 11:07:20;;;;;;;19.30;13.90;;;;;;;11.55;70.21;102509.78;5014801;28;20366;-69
2022/03/14 11:09:51;;;;;;;18.63;13.70;;;;;;;11.38;68.78;102490.00;5013714;28;20163;-69
2022/03/14 11:12:22;;;;;;;17.33;13.10;;;;;;;11.43;68.27;102495.75;5014221;28;20530;-68
2022/03/14 11:14:53;;;;;;;18.05;11.88;;;;;;;11.34;67.95;102501.06;5017379;28;20033;-68
2022/03/14 11:17:23;;;;;;;15.23;10.43;;;;;;;11.29;67.37;102508.59;5012518;28;20069;-68